Gene Autry, Oklahoma
Current Conditions -  °F | °C
As of 3:55 PM on Monday 20 Oct 2014 (Local Time) from KADM Reporting Station
Clear Clear  
Wind Chill: 82°   Ceiling: Unl
Heat Index: 84°   Visibility: 10mi
Dew Point: 64°   Wind: 0mph
Humidity: 54%   Direction: NA
Pressure: 30"   Gusts: NA
Location:  34.28°N, 97.04°W
Report Text: KADM 202055Z 00000KT 10SM SKC 28/18 A3000
Loading
Personal Weather Stations






























Interactive Weather Map
Tropical Storm Tracking
New forecast layout! Learn more

10-Day Weather Forecast

Advertisements
Track Severe Weather on mobile